Time;durP1;ratioP1;P1;durP2;ratioP2;P2;SDS_P1;SDS_P2;PMS_P1;PMS_P2;Temp;Humidity;BMP_temperature;BMP_pressure;BME280_temperature;BME280_humidity;BME280_pressure;Samples;Min_cycle;Max_cycle;Signal;HPM_P1;HPM_P2
2022/03/17 00:02:26;;;;;;;69.63;13.50;;;;;;;14.09;nan;101401.47;4866260;29;20457;-89
2022/03/17 00:04:53;;;;;;;81.90;12.23;;;;;;;14.14;nan;101403.63;4881429;29;20468;-88
2022/03/17 00:07:21;;;;;;;85.80;11.60;;;;;;;14.12;nan;101400.22;4881498;29;20486;-89
2022/03/17 00:09:49;;;;;;;52.50;11.37;;;;;;;14.18;nan;101413.19;4879185;29;20465;-87
2022/03/17 00:12:17;;;;;;;76.07;15.90;;;;;;;14.21;nan;101414.69;4877482;29;20474;-88
2022/03/17 00:14:44;;;;;;;81.30;15.97;;;;;;;14.19;nan;101406.63;4862731;29;20461;-88
2022/03/17 00:17:12;;;;;;;73.37;14.50;;;;;;;14.21;nan;101410.03;4884201;29;20458;-87
2022/03/17 00:19:40;;;;;;;66.50;13.27;;;;;;;14.17;nan;101400.50;4881155;29;20461;-88
2022/03/17 00:22:08;;;;;;;84.83;17.90;;;;;;;14.15;nan;101395.19;4883378;29;20487;-88
2022/03/17 00:24:37;;;;;;;70.70;14.40;;;;;;;14.22;nan;101388.91;4866438;29;20455;-88
2022/03/17 00:27:05;;;;;;;61.90;12.70;;;;;;;14.19;nan;101390.16;4875155;29;20485;-88
2022/03/17 00:29:35;;;;;;;69.30;12.20;;;;;;;14.21;nan;101395.44;4884510;29;20461;-88
2022/03/17 00:32:04;;;;;;;79.77;12.30;;;;;;;14.17;nan;101381.25;4884887;29;20460;-88
2022/03/17 00:34:32;;;;;;;73.83;14.90;;;;;;;14.16;nan;101379.53;4884312;29;20468;-88
2022/03/17 00:37:00;;;;;;;69.90;11.37;;;;;;;14.09;nan;101370.41;4884808;29;20960;-89
2022/03/17 00:39:32;;;;;;;54.87;12.80;;;;;;;14.19;nan;101384.66;4884547;29;20465;-89
2022/03/17 00:42:01;;;;;;;78.23;11.50;;;;;;;14.14;nan;101373.41;4884872;29;21019;-88
2022/03/17 00:44:30;;;;;;;72.43;13.50;;;;;;;14.18;nan;101374.69;4865919;29;20953;-88
2022/03/17 00:46:58;;;;;;;79.33;12.20;;;;;;;14.16;nan;101374.03;4882114;29;20486;-88
2022/03/17 00:49:27;;;;;;;69.53;11.57;;;;;;;14.15;nan;101375.09;4869187;29;20516;-88
2022/03/17 00:51:57;;;;;;;69.30;12.27;;;;;;;14.13;nan;101379.94;4899487;29;20799;-88
2022/03/17 00:54:26;;;;;;;68.87;11.80;;;;;;;14.08;nan;101365.94;4880929;29;20564;-88
2022/03/17 00:56:57;;;;;;;73.60;12.73;;;;;;;14.08;nan;101371.44;4884040;29;20990;-88
2022/03/17 00:59:25;;;;;;;77.43;13.00;;;;;;;14.10;nan;101369.34;4899345;29;20940;-88
2022/03/17 01:01:53;;;;;;;59.70;11.90;;;;;;;14.08;nan;101374.19;4868796;29;20453;-88
2022/03/17 01:04:20;;;;;;;80.63;11.70;;;;;;;14.03;nan;101354.72;4884010;29;20457;-88
2022/03/17 01:06:49;;;;;;;81.40;11.63;;;;;;;14.10;nan;101369.34;4883549;29;21102;-88
2022/03/17 01:09:17;;;;;;;60.27;11.47;;;;;;;14.04;nan;101364.69;4899341;29;20967;-89
2022/03/17 01:11:46;;;;;;;66.03;12.17;;;;;;;14.08;nan;101371.44;4884242;29;20458;-87
2022/03/17 01:14:14;;;;;;;71.53;12.17;;;;;;;14.09;nan;101373.16;4884280;29;20461;-89
2022/03/17 01:16:42;;;;;;;56.30;10.90;;;;;;;14.09;nan;101374.00;4883903;29;20461;-88
2022/03/17 01:19:10;;;;;;;72.10;11.10;;;;;;;14.04;nan;101361.94;4864886;29;20458;-88
2022/03/17 01:21:38;;;;;;;73.50;13.50;;;;;;;14.05;nan;101377.34;4859400;29;20786;-88
2022/03/17 01:24:06;;;;;;;75.03;12.13;;;;;;;14.07;nan;101381.59;4865289;29;20823;-88
2022/03/17 01:26:36;;;;;;;74.40;10.80;;;;;;;14.05;nan;101378.19;4868263;29;20968;-88
2022/03/17 01:29:05;;;;;;;91.93;13.37;;;;;;;14.03;nan;101388.56;4898551;29;20486;-88
2022/03/17 01:31:33;;;;;;;75.20;10.73;;;;;;;14.03;nan;101385.81;4868068;29;20481;-88
2022/03/17 01:34:00;;;;;;;72.70;11.70;;;;;;;13.98;nan;101371.81;4882158;29;20464;-87
2022/03/17 01:36:28;;;;;;;65.27;12.53;;;;;;;13.99;nan;101383.66;4883233;29;20458;-88
2022/03/17 01:38:57;;;;;;;57.30;10.67;;;;;;;13.96;nan;101367.56;4883235;29;20528;-88
2022/03/17 01:41:25;;;;;;;67.77;10.67;;;;;;;13.99;nan;101378.16;4883663;29;20454;-89
2022/03/17 01:43:52;;;;;;;65.43;11.73;;;;;;;13.97;nan;101378.38;4899736;29;20829;-88
2022/03/17 01:46:21;;;;;;;74.27;12.80;;;;;;;13.96;nan;101368.41;4883228;29;20449;-88
2022/03/17 01:48:48;;;;;;;88.63;13.53;;;;;;;13.96;nan;101368.41;4883230;29;20489;-88
2022/03/17 01:51:17;;;;;;;81.97;12.17;;;;;;;13.98;nan;101370.97;4898496;29;20458;-89
2022/03/17 01:53:45;;;;;;;64.13;11.07;;;;;;;13.93;nan;101356.97;4883088;29;20811;-88
2022/03/17 01:56:14;;;;;;;78.77;12.50;;;;;;;13.95;nan;101349.38;4815721;29;20491;-89
2022/03/17 01:58:44;;;;;;;94.93;12.50;;;;;;;13.95;nan;101357.63;4830261;29;20958;-88
2022/03/17 02:01:13;;;;;;;58.87;10.37;;;;;;;13.93;nan;101345.97;4845378;29;20515;-89
2022/03/17 02:03:47;;;;;;;74.37;12.80;;;;;;;13.90;nan;101341.72;4796688;29;20971;-88
2022/03/17 02:06:15;;;;;;;69.27;12.50;;;;;;;13.89;nan;101339.19;4837666;29;20469;-88
2022/03/17 02:08:45;;;;;;;60.70;11.17;;;;;;;13.76;nan;101318.81;4834146;29;20838;-90
2022/03/17 02:14:00;;;;;;;66.47;11.10;;;;;;;13.86;nan;101339.56;4853381;29;20853;-88
2022/03/17 02:16:28;;;;;;;70.03;9.57;;;;;;;13.85;nan;101332.41;4878362;29;20462;-89
2022/03/17 02:18:59;;;;;;;59.27;11.40;;;;;;;13.82;nan;101337.25;4845978;29;20455;-88
2022/03/17 02:21:29;;;;;;;59.97;11.20;;;;;;;13.79;nan;101345.91;4848877;29;20462;-88
2022/03/17 02:26:45;;;;;;;60.00;10.47;;;;;;;13.79;nan;101336.81;4865376;29;20567;-89
2022/03/17 02:29:13;;;;;;;72.23;11.07;;;;;;;13.77;nan;101334.25;4892620;29;20478;-89
2022/03/17 02:31:41;;;;;;;76.97;10.30;;;;;;;13.80;nan;101344.84;4863855;29;20485;-89
2022/03/17 02:34:10;;;;;;;38.07;9.63;;;;;;;13.80;nan;101338.50;4882249;29;20461;-88
2022/03/17 02:36:45;;;;;;;65.77;10.10;;;;;;;13.79;nan;101343.16;4829759;29;20503;-89
2022/03/17 02:39:13;;;;;;;58.13;10.27;;;;;;;13.77;nan;101341.66;4828901;29;21009;-88
2022/03/17 02:41:45;;;;;;;79.00;10.57;;;;;;;13.78;nan;101337.84;4858908;29;20975;-88
2022/03/17 02:44:13;;;;;;;59.40;10.73;;;;;;;13.73;nan;101321.13;4829236;29;20451;-88
2022/03/17 02:46:41;;;;;;;57.50;9.33;;;;;;;13.74;nan;101334.66;4829452;29;20520;-89
2022/03/17 02:49:09;;;;;;;62.37;12.07;;;;;;;13.78;nan;101335.97;4829198;29;20491;-88
2022/03/17 02:51:38;;;;;;;78.77;11.07;;;;;;;13.78;nan;101341.44;4844556;29;20862;-89
2022/03/17 02:54:06;;;;;;;67.67;10.50;;;;;;;13.79;nan;101340.41;4837382;29;20547;-88
2022/03/17 02:56:34;;;;;;;67.33;10.93;;;;;;;13.77;nan;101339.75;4881881;29;20458;-88
2022/03/17 02:59:02;;;;;;;86.30;11.90;;;;;;;13.79;nan;101339.56;4866904;29;20458;-88
2022/03/17 03:01:29;;;;;;;65.00;11.47;;;;;;;13.74;nan;101331.06;4882161;29;20458;-88
2022/03/17 03:03:59;;;;;;;88.13;12.60;;;;;;;13.71;nan;101320.47;4881141;29;20457;-88
2022/03/17 03:06:27;;;;;;;75.63;11.80;;;;;;;13.74;nan;101322.81;4897367;29;20450;-89
2022/03/17 03:08:55;;;;;;;90.60;12.93;;;;;;;13.75;nan;101322.63;4881991;29;20497;-88
2022/03/17 03:11:23;;;;;;;75.37;11.60;;;;;;;13.75;nan;101327.25;4879316;29;20451;-88
2022/03/17 03:13:51;;;;;;;70.97;11.37;;;;;;;13.73;nan;101332.94;4863676;29;20454;-88
2022/03/17 03:16:19;;;;;;;78.97;12.17;;;;;;;13.73;nan;101327.47;4881320;29;20455;-88
2022/03/17 03:18:47;;;;;;;79.23;11.63;;;;;;;13.77;nan;101345.25;4881304;29;20933;-88
2022/03/17 03:21:16;;;;;;;84.37;13.27;;;;;;;13.79;nan;101351.41;4896181;29;20469;-88
2022/03/17 03:23:45;;;;;;;76.07;12.50;;;;;;;13.77;nan;101347.16;4896528;29;20499;-88
2022/03/17 03:26:18;;;;;;;85.33;10.90;;;;;;;13.82;nan;101348.25;4897485;29;20489;-88
2022/03/17 03:28:46;;;;;;;90.57;11.27;;;;;;;13.81;nan;101356.69;4896293;29;20477;-88
2022/03/17 03:31:14;;;;;;;84.60;13.43;;;;;;;13.80;nan;101357.75;4863295;29;20478;-88
2022/03/17 03:33:41;;;;;;;68.57;11.37;;;;;;;13.79;nan;101367.88;4881018;29;20446;-89
2022/03/17 03:38:57;;;;;;;67.43;10.70;;;;;;;13.81;nan;101368.53;4896239;29;20929;-88
2022/03/17 03:41:24;;;;;;;87.10;12.40;;;;;;;13.81;nan;101376.78;4896402;29;20869;-89
2022/03/17 03:43:52;;;;;;;88.63;12.93;;;;;;;13.78;nan;101370.81;4865439;29;20460;-89
2022/03/17 03:46:20;;;;;;;80.63;14.37;;;;;;;13.76;nan;101367.41;4880776;29;20450;-89
2022/03/17 03:48:49;;;;;;;100.80;12.80;;;;;;;13.79;nan;101369.78;4896979;29;20485;-89
2022/03/17 03:51:18;;;;;;;91.93;13.10;;;;;;;13.83;nan;101387.56;4896933;29;20454;-89
2022/03/17 03:56:33;;;;;;;99.53;13.57;;;;;;;13.80;nan;101368.72;4899190;29;20450;-88
2022/03/17 03:59:02;;;;;;;82.87;13.07;;;;;;;13.77;nan;101369.97;4885557;29;20453;-88
2022/03/17 04:01:32;;;;;;;93.00;13.00;;;;;;;13.70;nan;101363.56;4870615;29;20460;-89
2022/03/17 04:04:01;;;;;;;102.27;13.80;;;;;;;13.69;nan;101366.50;4885818;29;20457;-88
2022/03/17 04:06:30;;;;;;;90.97;11.57;;;;;;;13.74;nan;101373.13;4869745;29;20516;-89
2022/03/17 04:08:59;;;;;;;95.77;15.47;;;;;;;13.74;nan;101381.34;4885045;29;20560;-90
2022/03/17 04:11:28;;;;;;;85.63;11.77;;;;;;;13.73;nan;101374.16;4883490;29;20457;-89
2022/03/17 04:13:56;;;;;;;93.20;14.67;;;;;;;13.72;nan;101379.84;4869379;29;20937;-89
2022/03/17 04:16:24;;;;;;;95.07;13.13;;;;;;;13.72;nan;101390.84;4900685;29;20454;-89
2022/03/17 04:18:53;;;;;;;76.47;14.57;;;;;;;13.64;nan;101378.13;4868925;29;20461;-89
2022/03/17 04:21:22;;;;;;;84.83;14.63;;;;;;;13.70;nan;101395.69;4900547;29;20513;-89
2022/03/17 04:23:50;;;;;;;93.00;14.17;;;;;;;13.70;nan;101390.19;4869864;29;20449;-89
2022/03/17 04:26:18;;;;;;;69.20;11.93;;;;;;;13.69;nan;101394.81;4869912;29;20454;-89
2022/03/17 04:28:45;;;;;;;77.87;13.57;;;;;;;13.73;nan;101404.38;4865824;29;20478;-88
2022/03/17 04:31:13;;;;;;;77.67;13.07;;;;;;;13.74;nan;101403.34;4881011;29;21029;-89
2022/03/17 04:33:42;;;;;;;71.47;12.57;;;;;;;13.73;nan;101407.13;4881405;29;20453;-88
2022/03/17 04:36:12;;;;;;;74.53;11.23;;;;;;;13.71;nan;101394.63;4866246;29;20459;-88
2022/03/17 04:38:40;;;;;;;100.30;13.87;;;;;;;13.75;nan;101401.44;4892443;29;20858;-89
2022/03/17 04:41:10;;;;;;;73.63;12.77;;;;;;;13.69;nan;101388.47;4884872;29;20453;-89
2022/03/17 04:43:37;;;;;;;66.33;11.67;;;;;;;13.74;nan;101403.34;4899888;29;20512;-89
2022/03/17 04:46:07;;;;;;;84.43;14.20;;;;;;;13.69;nan;101394.81;4869586;29;20881;-88
2022/03/17 04:48:36;;;;;;;91.70;16.60;;;;;;;13.73;nan;101400.78;4869756;29;20485;-88
2022/03/17 04:51:05;;;;;;;82.20;13.23;;;;;;;13.71;nan;101403.72;4884456;29;20457;-88
2022/03/17 04:53:33;;;;;;;101.33;15.33;;;;;;;13.72;nan;101401.81;4883570;29;20449;-88
2022/03/17 04:56:11;;;;;;;66.40;13.87;;;;;;;13.71;nan;101409.22;4816314;29;20842;-88
2022/03/17 04:58:42;;;;;;;86.33;11.73;;;;;;;13.69;nan;101404.97;4812334;29;20459;-88
2022/03/17 05:01:12;;;;;;;75.20;12.33;;;;;;;13.66;nan;101397.16;4828130;29;20467;-89
2022/03/17 05:03:42;;;;;;;76.60;11.50;;;;;;;13.72;nan;101407.31;4813236;29;20456;-91
2022/03/17 05:06:15;;;;;;;78.53;12.93;;;;;;;13.71;nan;101409.22;4821997;29;20823;-91
2022/03/17 05:08:43;;;;;;;74.53;13.20;;;;;;;13.74;nan;101417.06;4831896;29;21044;-89
2022/03/17 05:11:13;;;;;;;81.67;13.60;;;;;;;13.75;nan;101416.03;4846991;29;20447;-89
2022/03/17 05:13:42;;;;;;;74.07;15.40;;;;;;;13.74;nan;101419.81;4841040;29;20470;-91
2022/03/17 05:16:12;;;;;;;77.20;14.07;;;;;;;13.73;nan;101409.88;4873187;29;20466;-90
2022/03/17 05:18:40;;;;;;;92.37;13.17;;;;;;;13.78;nan;101425.78;4881464;29;20454;-91
2022/03/17 05:21:08;;;;;;;70.93;13.33;;;;;;;13.78;nan;101421.13;4865940;29;20450;-89
2022/03/17 05:23:38;;;;;;;79.63;12.93;;;;;;;13.79;nan;101419.22;4865717;29;20946;-89
2022/03/17 05:26:07;;;;;;;80.60;13.60;;;;;;;13.75;nan;101410.53;4896175;29;20469;-89
2022/03/17 05:28:36;;;;;;;72.50;13.10;;;;;;;13.75;nan;101405.03;4875411;29;20489;-89
2022/03/17 05:31:04;;;;;;;99.37;13.70;;;;;;;13.75;nan;101420.66;4884435;29;20481;-90
2022/03/17 05:33:34;;;;;;;70.90;13.50;;;;;;;13.73;nan;101412.63;4868564;29;20972;-91
2022/03/17 05:36:05;;;;;;;85.70;13.50;;;;;;;13.75;nan;101418.78;4899884;29;20457;-90
2022/03/17 05:38:36;;;;;;;84.43;13.23;;;;;;;13.76;nan;101406.72;4876953;29;20458;-89
2022/03/17 05:41:05;;;;;;;76.67;11.73;;;;;;;13.76;nan;101423.22;4884188;29;20454;-89
2022/03/17 05:43:34;;;;;;;107.17;12.20;;;;;;;13.70;nan;101413.00;4898958;29;20532;-91
2022/03/17 05:46:03;;;;;;;81.53;12.70;;;;;;;13.73;nan;101426.34;4868543;29;20461;-89
2022/03/17 05:48:31;;;;;;;62.67;12.40;;;;;;;13.71;nan;101417.47;4827464;29;20476;-89
2022/03/17 05:51:01;;;;;;;94.40;12.40;;;;;;;13.79;nan;101433.81;4850117;29;20456;-89
2022/03/17 05:53:29;;;;;;;76.30;10.43;;;;;;;13.74;nan;101436.31;4845786;29;20451;-90
2022/03/17 05:55:59;;;;;;;76.17;12.73;;;;;;;13.74;nan;101441.78;4861190;29;20474;-90
2022/03/17 05:58:29;;;;;;;70.27;11.30;;;;;;;13.74;nan;101430.81;4845535;29;20489;-89
2022/03/17 06:00:59;;;;;;;77.90;11.73;;;;;;;13.72;nan;101443.88;4831620;29;20451;-91
2022/03/17 06:03:27;;;;;;;70.60;12.23;;;;;;;13.67;nan;101440.88;4845654;29;20451;-91
2022/03/17 06:05:55;;;;;;;74.83;12.90;;;;;;;13.66;nan;101441.91;4853574;29;20434;-91
2022/03/17 06:08:26;;;;;;;85.47;12.60;;;;;;;13.66;nan;101452.09;4882951;29;20457;-91
2022/03/17 06:10:54;;;;;;;106.87;13.90;;;;;;;13.64;nan;101449.53;4897168;29;20525;-90
2022/03/17 06:13:22;;;;;;;49.77;12.03;;;;;;;13.66;nan;101455.66;4898166;29;21027;-90
2022/03/17 06:15:50;;;;;;;63.23;11.70;;;;;;;13.60;nan;101452.88;4868282;29;20945;-90
2022/03/17 06:18:19;;;;;;;88.50;13.20;;;;;;;13.62;nan;101462.59;4879892;29;20965;-92
2022/03/17 06:20:47;;;;;;;70.00;13.83;;;;;;;13.63;nan;101467.06;4896601;29;20949;-90
2022/03/17 06:23:15;;;;;;;79.47;13.40;;;;;;;13.63;nan;101471.69;4898449;29;20496;-90
2022/03/17 06:25:42;;;;;;;93.80;14.20;;;;;;;13.58;nan;101464.03;4898890;29;20461;-91
2022/03/17 06:28:10;;;;;;;79.13;13.87;;;;;;;13.56;nan;101465.28;4898254;29;20453;-91
2022/03/17 06:30:38;;;;;;;92.10;12.67;;;;;;;13.58;nan;101475.03;4882661;29;20490;-91
2022/03/17 06:33:09;;;;;;;75.20;13.07;;;;;;;13.61;nan;101485.63;4897789;29;20967;-89
2022/03/17 06:35:37;;;;;;;63.93;14.03;;;;;;;13.57;nan;101489.81;4897795;29;20458;-90
2022/03/17 06:38:07;;;;;;;92.97;13.00;;;;;;;13.58;nan;101494.25;4882375;29;20959;-91
2022/03/17 06:40:35;;;;;;;78.87;15.00;;;;;;;13.56;nan;101499.09;4867932;29;20465;-89
2022/03/17 06:43:04;;;;;;;77.60;14.27;;;;;;;13.54;nan;101489.34;4883052;29;20461;-91
2022/03/17 06:45:31;;;;;;;93.33;14.60;;;;;;;13.57;nan;101500.78;4867703;29;20458;-88
2022/03/17 06:47:59;;;;;;;62.60;13.23;;;;;;;13.56;nan;101504.59;4882538;29;20450;-89
2022/03/17 06:50:27;;;;;;;82.70;13.03;;;;;;;13.56;nan;101500.97;4867094;29;20548;-90
2022/03/17 06:52:55;;;;;;;83.27;13.90;;;;;;;13.63;nan;101511.00;4882205;29;20450;-90
2022/03/17 06:55:23;;;;;;;73.30;12.77;;;;;;;13.62;nan;101506.56;4867904;29;20445;-91
2022/03/17 06:57:51;;;;;;;62.17;11.67;;;;;;;13.60;nan;101510.53;4882187;29;20458;-90
2022/03/17 07:00:20;;;;;;;82.07;13.13;;;;;;;13.62;nan;101511.19;4867684;29;20454;-91
2022/03/17 07:02:48;;;;;;;66.30;13.17;;;;;;;13.57;nan;101509.03;4882266;29;20559;-89
2022/03/17 07:05:16;;;;;;;70.53;13.07;;;;;;;13.60;nan;101519.63;4882617;29;20513;-90
2022/03/17 07:07:44;;;;;;;90.47;13.10;;;;;;;13.58;nan;101516.22;4865462;29;20981;-90
2022/03/17 07:10:13;;;;;;;71.80;13.33;;;;;;;13.60;nan;101521.53;4867376;29;20478;-89
2022/03/17 07:12:43;;;;;;;58.17;11.50;;;;;;;13.59;nan;101515.19;4863320;29;20465;-90
2022/03/17 07:15:12;;;;;;;67.00;10.67;;;;;;;13.64;nan;101528.34;4876212;29;20450;-89
2022/03/17 07:17:41;;;;;;;69.53;12.07;;;;;;;13.63;nan;101530.25;4866802;29;20468;-90
2022/03/17 07:20:15;;;;;;;61.93;12.63;;;;;;;13.63;nan;101527.50;4863953;29;20509;-90
2022/03/17 07:22:43;;;;;;;60.90;10.10;;;;;;;13.62;nan;101535.91;4863527;29;21021;-90
2022/03/17 07:25:11;;;;;;;63.57;11.50;;;;;;;13.64;nan;101533.84;4848490;29;20454;-90
2022/03/17 07:27:41;;;;;;;86.07;14.37;;;;;;;13.66;nan;101540.81;4848390;29;20458;-90
2022/03/17 07:30:19;;;;;;;73.77;12.73;;;;;;;13.67;nan;101538.91;4865476;29;21031;-90
2022/03/17 07:32:58;;;;;;;87.87;13.20;;;;;;;13.69;nan;101540.44;4867131;29;20453;-90
2022/03/17 07:35:27;;;;;;;64.37;11.33;;;;;;;13.68;nan;101530.47;4884158;29;20965;-90
2022/03/17 07:37:57;;;;;;;80.30;11.57;;;;;;;13.73;nan;101546.38;4897696;29;20457;-88
2022/03/17 07:40:31;;;;;;;71.43;10.37;;;;;;;13.73;nan;101528.00;4881647;29;20976;-89
2022/03/17 07:43:02;;;;;;;63.53;11.57;;;;;;;13.76;nan;101538.63;4866636;29;20449;-88
2022/03/17 07:45:31;;;;;;;59.53;11.07;;;;;;;13.74;nan;101535.22;4882125;29;20441;-88
2022/03/17 07:47:59;;;;;;;86.33;11.63;;;;;;;13.75;nan;101539.66;4864660;29;20454;-89
2022/03/17 07:50:27;;;;;;;70.47;11.70;;;;;;;13.81;nan;101543.53;4866011;29;20492;-88
2022/03/17 07:52:55;;;;;;;78.93;11.53;;;;;;;13.79;nan;101538.22;4866637;29;20434;-88
2022/03/17 07:55:24;;;;;;;75.70;11.23;;;;;;;13.81;nan;101552.63;4866573;29;20434;-89
2022/03/17 07:57:52;;;;;;;80.40;11.57;;;;;;;13.87;nan;101547.38;4866189;29;20490;-87
2022/03/17 08:00:19;;;;;;;67.30;11.00;;;;;;;13.83;nan;101547.78;4897688;29;20458;-88
2022/03/17 08:02:49;;;;;;;49.03;10.97;;;;;;;13.88;nan;101552.66;4876042;29;20454;-89
2022/03/17 08:05:17;;;;;;;69.87;12.33;;;;;;;13.92;nan;101553.13;4896977;29;20445;-88
2022/03/17 08:07:44;;;;;;;48.23;10.97;;;;;;;13.95;nan;101552.75;4880552;29;20440;-88
2022/03/17 08:10:13;;;;;;;59.27;10.63;;;;;;;13.97;nan;101551.50;4880275;29;20488;-88
2022/03/17 08:12:47;;;;;;;66.70;9.40;;;;;;;13.99;nan;101559.56;4881017;29;20465;-88
2022/03/17 08:15:16;;;;;;;71.13;11.90;;;;;;;14.04;nan;101551.59;4895768;29;20450;-88
2022/03/17 08:17:54;;;;;;;79.57;10.83;;;;;;;14.07;nan;101562.16;4877354;29;20464;-89
2022/03/17 08:20:25;;;;;;;54.60;10.47;;;;;;;14.13;nan;101562.22;4894261;29;20975;-89
2022/03/17 08:22:55;;;;;;;63.77;9.53;;;;;;;14.10;nan;101561.78;4895810;29;20441;-88
2022/03/17 08:25:23;;;;;;;76.17;11.03;;;;;;;14.09;nan;101549.94;4876957;29;20446;-88
2022/03/17 08:27:55;;;;;;;61.20;11.27;;;;;;;14.16;nan;101563.75;4880703;29;20441;-89
2022/03/17 08:30:24;;;;;;;89.03;12.07;;;;;;;14.14;nan;101555.69;4895512;29;20819;-88
2022/03/17 08:32:52;;;;;;;75.00;9.60;;;;;;;14.17;nan;101557.19;4895694;29;20449;-88
2022/03/17 08:35:28;;;;;;;61.90;12.43;;;;;;;14.24;nan;101563.59;4880132;29;20454;-89
2022/03/17 08:37:59;;;;;;;65.13;11.37;;;;;;;14.24;nan;101566.34;4880271;29;20445;-89
2022/03/17 08:40:40;;;;;;;69.33;10.90;;;;;;;14.27;nan;101574.19;4895700;29;20438;-89
2022/03/17 08:43:14;;;;;;;68.30;9.50;;;;;;;14.33;nan;101578.06;4883298;29;20960;-88
2022/03/17 08:51:38;;;;;;;68.20;10.83;;;;;;;14.54;nan;101591.81;4901185;29;20488;-89
2022/03/17 08:54:27;;;;;;;56.40;12.10;;;;;;;14.51;nan;101578.47;4898302;29;20816;-89
2022/03/17 08:57:00;;;;;;;84.73;11.07;;;;;;;14.58;nan;101582.13;4864701;29;20465;-89
2022/03/17 08:59:35;;;;;;;56.63;8.43;;;;;;;14.63;nan;101596.09;4862392;29;20449;-88
2022/03/17 09:02:05;;;;;;;68.67;12.30;;;;;;;14.82;nan;101608.31;4849882;29;20446;-89
2022/03/17 09:04:44;;;;;;;56.30;9.20;;;;;;;14.85;nan;101599.66;4866491;29;20461;-88
2022/03/17 09:07:13;;;;;;;46.23;9.73;;;;;;;14.97;nan;101603.56;4880352;29;20445;-88
2022/03/17 09:09:42;;;;;;;64.03;10.63;;;;;;;15.08;nan;101605.75;4884233;29;20485;-88
2022/03/17 09:12:12;;;;;;;60.40;11.40;;;;;;;15.14;nan;101593.09;4874348;29;20979;-88
2022/03/17 09:14:41;;;;;;;62.40;11.83;;;;;;;15.30;nan;101608.41;4883311;29;20453;-86
2022/03/17 09:17:10;;;;;;;57.93;10.30;;;;;;;15.36;nan;101607.63;4897855;29;20454;-87
2022/03/17 09:19:39;;;;;;;63.30;10.80;;;;;;;15.45;nan;101617.41;4882857;29;20441;-87
2022/03/17 09:22:08;;;;;;;71.03;10.80;;;;;;;15.49;nan;101613.19;4853009;29;20452;-86
2022/03/17 09:24:40;;;;;;;87.13;11.73;;;;;;;15.48;nan;101617.00;4870773;29;20492;-86
2022/03/17 09:27:09;;;;;;;59.90;10.47;;;;;;;15.52;nan;101619.13;4899321;29;20859;-88
2022/03/17 09:29:40;;;;;;;71.33;11.47;;;;;;;15.57;nan;101615.81;4868325;29;21015;-88
2022/03/17 09:32:09;;;;;;;63.07;9.63;;;;;;;15.61;nan;101614.31;4899059;29;20446;-90
2022/03/17 09:34:37;;;;;;;69.77;11.07;;;;;;;15.77;nan;101633.28;4880826;29;20454;-91
2022/03/17 09:37:05;;;;;;;67.97;10.53;;;;;;;15.88;nan;101629.91;4865243;29;20442;-90
2022/03/17 09:39:45;;;;;;;72.23;9.33;;;;;;;15.97;nan;101632.50;4868105;29;20438;-89
2022/03/17 09:42:15;;;;;;;61.47;10.90;;;;;;;16.01;nan;101629.09;4895395;29;20952;-88
2022/03/17 09:44:46;;;;;;;60.37;11.03;;;;;;;16.10;nan;101638.03;4898448;29;20450;-91
2022/03/17 09:47:18;;;;;;;79.80;11.40;;;;;;;16.21;nan;101637.41;4899018;29;20944;-92
2022/03/17 09:49:49;;;;;;;61.50;10.63;;;;;;;16.23;nan;101638.06;4867918;29;20484;-91
2022/03/17 09:52:17;;;;;;;50.37;9.13;;;;;;;16.21;nan;101627.22;4882816;29;20534;-86
2022/03/17 09:54:45;;;;;;;64.33;8.37;;;;;;;16.43;nan;101632.56;4866182;29;20805;-86
2022/03/17 09:57:16;;;;;;;70.83;10.80;;;;;;;16.53;nan;101641.28;4864774;29;20446;-85
2022/03/17 09:59:45;;;;;;;65.27;10.33;;;;;;;16.57;nan;101629.59;4864685;29;20459;-87
2022/03/17 10:02:17;;;;;;;74.77;10.37;;;;;;;16.65;nan;101630.50;4879810;29;20462;-87
2022/03/17 10:04:45;;;;;;;65.37;9.30;;;;;;;16.74;nan;101634.75;4880075;29;20826;-87
2022/03/17 10:07:14;;;;;;;49.90;10.90;;;;;;;16.80;nan;101637.50;4869624;29;20450;-87
2022/03/17 10:09:43;;;;;;;65.00;9.53;;;;;;;16.82;nan;101637.28;4867149;29;20500;-87
2022/03/17 10:12:11;;;;;;;52.97;11.20;;;;;;;16.87;nan;101635.59;4888538;29;20445;-87
2022/03/17 10:14:41;;;;;;;72.73;10.40;;;;;;;16.94;nan;101638.31;4883180;29;20488;-87
2022/03/17 10:17:39;;;;;;;60.93;9.80;;;;;;;17.08;nan;101648.31;4882671;29;20945;-88
2022/03/17 10:20:25;;;;;;;66.83;9.03;;;;;;;17.13;nan;101639.38;4894772;29;20447;-87
2022/03/17 10:22:54;;;;;;;59.27;9.67;;;;;;;17.20;nan;101649.34;4864344;29;20450;-87
2022/03/17 10:25:26;;;;;;;69.40;9.70;;;;;;;17.25;nan;101643.19;4879458;29;20456;-87
2022/03/17 10:27:55;;;;;;;69.30;8.17;;;;;;;17.35;nan;101651.84;4868718;29;20456;-87
2022/03/17 10:30:34;;;;;;;67.00;10.80;;;;;;;17.46;nan;101650.38;4882537;29;21043;-88
2022/03/17 10:33:14;;;;;;;61.27;8.70;;;;;;;17.59;nan;101651.16;4879031;29;20469;-88
2022/03/17 10:35:46;;;;;;;85.40;10.70;;;;;;;17.67;nan;101655.66;4871176;29;20962;-88
2022/03/17 10:38:16;;;;;;;55.03;11.00;;;;;;;17.72;nan;101653.03;4867734;29;20464;-88
2022/03/17 10:40:59;;;;;;;51.07;8.57;;;;;;;17.83;nan;101655.16;4881936;29;20866;-88
2022/03/17 10:43:29;;;;;;;69.70;8.83;;;;;;;18.04;nan;101658.66;4896110;29;20975;-89
2022/03/17 10:46:05;;;;;;;48.67;8.73;;;;;;;18.12;nan;101661.16;4868260;29;20447;-88
2022/03/17 10:48:34;;;;;;;63.33;9.50;;;;;;;18.17;nan;101653.91;4880348;29;20450;-88
2022/03/17 10:51:02;;;;;;;59.90;10.67;;;;;;;18.30;nan;101669.56;4864775;29;20493;-88
2022/03/17 10:53:30;;;;;;;55.57;9.17;;;;;;;18.37;nan;101677.84;4885396;29;20459;-88
2022/03/17 10:56:14;;;;;;;78.77;10.40;;;;;;;18.29;nan;101678.94;4882405;29;20980;-88
2022/03/17 10:58:43;;;;;;;45.87;7.40;;;;;;;18.30;nan;101681.50;4860811;29;20465;-88
2022/03/17 11:01:38;;;;;;;61.47;8.20;;;;;;;18.42;nan;101687.19;4880515;29;20454;-87
2022/03/17 11:04:06;;;;;;;55.23;7.53;;;;;;;18.47;nan;101681.81;4868451;29;20470;-89
2022/03/17 11:06:38;;;;;;;57.13;8.83;;;;;;;18.48;nan;101677.97;4868843;29;20490;-88
2022/03/17 11:09:08;;;;;;;75.03;9.53;;;;;;;18.55;nan;101681.56;4869140;29;21004;-89
2022/03/17 11:11:37;;;;;;;66.03;8.43;;;;;;;18.67;nan;101689.16;4887514;29;20560;-88
2022/03/17 11:14:05;;;;;;;52.60;7.90;;;;;;;18.75;nan;101678.66;4897141;29;20461;-88
2022/03/17 11:16:37;;;;;;;56.67;7.57;;;;;;;18.92;nan;101687.25;4878224;29;20506;-88
2022/03/17 11:19:05;;;;;;;62.50;9.50;;;;;;;18.95;nan;101684.91;4877811;29;20458;-87
2022/03/17 11:21:34;;;;;;;52.07;8.03;;;;;;;18.96;nan;101680.19;4869731;29;20437;-88
2022/03/17 11:24:05;;;;;;;55.07;8.17;;;;;;;19.03;nan;101692.09;4893340;29;20437;-88
2022/03/17 11:26:34;;;;;;;52.60;7.93;;;;;;;19.01;nan;101683.16;4866992;29;20469;-89
2022/03/17 11:29:07;;;;;;;53.87;9.87;;;;;;;19.04;nan;101685.47;4882049;29;20541;-88
2022/03/17 11:31:52;;;;;;;56.93;9.53;;;;;;;19.15;nan;101673.63;4881388;29;20823;-88
2022/03/17 11:34:41;;;;;;;69.03;18.47;;;;;;;19.29;nan;101685.44;4882432;29;20497;-90
2022/03/17 11:37:24;;;;;;;51.30;8.40;;;;;;;19.22;nan;101690.22;4867301;29;20550;-88
2022/03/17 11:39:57;;;;;;;50.73;6.40;;;;;;;19.17;nan;101685.34;4897864;29;20827;-91
2022/03/17 11:42:29;;;;;;;50.57;6.50;;;;;;;19.13;nan;101670.25;4873466;29;20447;-90
2022/03/17 11:45:15;;;;;;;35.37;7.23;;;;;;;19.17;nan;101687.25;4860288;29;20485;-91
2022/03/17 11:48:12;;;;;;;58.50;7.37;;;;;;;19.16;nan;101680.88;4875285;29;20546;-90
2022/03/17 11:50:43;;;;;;;39.17;7.00;;;;;;;19.14;nan;101679.41;4863550;29;20545;-91
2022/03/17 11:53:21;;;;;;;30.30;6.20;;;;;;;19.22;nan;101679.97;4864128;29;20446;-92
2022/03/17 11:55:57;;;;;;;42.40;7.27;;;;;;;19.25;nan;101671.16;4877232;29;20878;-91
2022/03/17 11:58:46;;;;;;;40.77;8.07;;;;;;;19.24;nan;101657.56;4897268;29;20467;-91